sensor_id;sensor_type;location;lat;lon;timestamp;P1;durP1;ratioP1;P2;durP2;ratioP2
4738;SDS011;2383;48.632;10.156;2023-09-19T00:01:57;2.50;;;1.33;;
4738;SDS011;2383;48.632;10.156;2023-09-19T00:05:59;2.88;;;1.20;;
4738;SDS011;2383;48.632;10.156;2023-09-19T00:10:01;3.03;;;1.30;;
4738;SDS011;2383;48.632;10.156;2023-09-19T00:14:03;1.63;;;1.20;;
4738;SDS011;2383;48.632;10.156;2023-09-19T00:18:10;1.90;;;1.15;;
4738;SDS011;2383;48.632;10.156;2023-09-19T00:22:12;3.30;;;1.88;;
4738;SDS011;2383;48.632;10.156;2023-09-19T00:26:14;1.90;;;1.17;;
4738;SDS011;2383;48.632;10.156;2023-09-19T00:30:20;3.05;;;1.10;;
4738;SDS011;2383;48.632;10.156;2023-09-19T00:34:23;1.23;;;1.05;;
4738;SDS011;2383;48.632;10.156;2023-09-19T00:38:25;2.38;;;1.00;;
4738;SDS011;2383;48.632;10.156;2023-09-19T00:42:28;1.40;;;1.05;;
4738;SDS011;2383;48.632;10.156;2023-09-19T00:46:31;1.15;;;1.05;;
4738;SDS011;2383;48.632;10.156;2023-09-19T00:50:35;1.17;;;0.90;;
4738;SDS011;2383;48.632;10.156;2023-09-19T00:54:37;2.45;;;1.00;;
4738;SDS011;2383;48.632;10.156;2023-09-19T00:58:40;4.50;;;0.95;;
4738;SDS011;2383;48.632;10.156;2023-09-19T01:02:42;1.25;;;1.10;;
4738;SDS011;2383;48.632;10.156;2023-09-19T01:06:46;2.33;;;0.95;;
4738;SDS011;2383;48.632;10.156;2023-09-19T01:10:59;1.83;;;1.20;;
4738;SDS011;2383;48.632;10.156;2023-09-19T01:28:51;1.10;;;0.90;;
4738;SDS011;2383;48.632;10.156;2023-09-19T01:32:56;0.88;;;0.80;;
4738;SDS011;2383;48.632;10.156;2023-09-19T01:36:59;1.95;;;0.93;;
4738;SDS011;2383;48.632;10.156;2023-09-19T01:41:04;1.15;;;1.00;;
4738;SDS011;2383;48.632;10.156;2023-09-19T01:49:48;2.30;;;0.90;;
4738;SDS011;2383;48.632;10.156;2023-09-19T01:54:03;1.40;;;0.70;;
4738;SDS011;2383;48.632;10.156;2023-09-19T02:02:17;1.42;;;0.63;;
4738;SDS011;2383;48.632;10.156;2023-09-19T02:06:23;1.40;;;0.90;;
4738;SDS011;2383;48.632;10.156;2023-09-19T02:10:26;1.27;;;0.80;;
4738;SDS011;2383;48.632;10.156;2023-09-19T02:14:28;0.77;;;0.70;;
4738;SDS011;2383;48.632;10.156;2023-09-19T02:18:30;1.15;;;0.90;;
4738;SDS011;2383;48.632;10.156;2023-09-19T02:22:33;2.78;;;0.90;;
4738;SDS011;2383;48.632;10.156;2023-09-19T02:26:35;2.35;;;0.65;;
4738;SDS011;2383;48.632;10.156;2023-09-19T02:30:40;1.58;;;1.00;;
4738;SDS011;2383;48.632;10.156;2023-09-19T02:34:42;0.80;;;0.75;;
4738;SDS011;2383;48.632;10.156;2023-09-19T02:38:44;2.35;;;0.90;;
4738;SDS011;2383;48.632;10.156;2023-09-19T02:42:52;1.58;;;1.02;;
4738;SDS011;2383;48.632;10.156;2023-09-19T02:46:57;1.10;;;1.00;;
4738;SDS011;2383;48.632;10.156;2023-09-19T02:50:59;1.00;;;0.90;;
4738;SDS011;2383;48.632;10.156;2023-09-19T02:55:01;1.90;;;0.80;;
4738;SDS011;2383;48.632;10.156;2023-09-19T02:59:05;1.73;;;0.77;;
4738;SDS011;2383;48.632;10.156;2023-09-19T03:03:08;1.30;;;0.75;;
4738;SDS011;2383;48.632;10.156;2023-09-19T03:07:10;0.98;;;0.90;;
4738;SDS011;2383;48.632;10.156;2023-09-19T03:11:13;0.98;;;0.98;;
4738;SDS011;2383;48.632;10.156;2023-09-19T03:15:19;1.92;;;0.80;;
4738;SDS011;2383;48.632;10.156;2023-09-19T03:19:24;2.00;;;0.90;;
4738;SDS011;2383;48.632;10.156;2023-09-19T03:23:28;3.72;;;0.90;;
4738;SDS011;2383;48.632;10.156;2023-09-19T03:27:31;2.13;;;0.80;;
4738;SDS011;2383;48.632;10.156;2023-09-19T03:31:33;1.95;;;0.98;;
4738;SDS011;2383;48.632;10.156;2023-09-19T03:35:42;0.90;;;0.80;;
4738;SDS011;2383;48.632;10.156;2023-09-19T03:39:46;2.13;;;0.90;;
4738;SDS011;2383;48.632;10.156;2023-09-19T03:43:48;0.80;;;0.80;;
4738;SDS011;2383;48.632;10.156;2023-09-19T03:47:51;1.52;;;1.00;;
4738;SDS011;2383;48.632;10.156;2023-09-19T03:51:55;1.65;;;0.90;;
4738;SDS011;2383;48.632;10.156;2023-09-19T03:55:57;1.70;;;1.08;;
4738;SDS011;2383;48.632;10.156;2023-09-19T04:00:02;1.13;;;1.00;;
4738;SDS011;2383;48.632;10.156;2023-09-19T04:04:13;1.02;;;0.90;;
4738;SDS011;2383;48.632;10.156;2023-09-19T04:08:15;2.60;;;1.00;;
4738;SDS011;2383;48.632;10.156;2023-09-19T04:12:17;1.75;;;1.00;;
4738;SDS011;2383;48.632;10.156;2023-09-19T04:16:19;1.35;;;0.90;;
4738;SDS011;2383;48.632;10.156;2023-09-19T04:20:21;1.88;;;1.10;;
4738;SDS011;2383;48.632;10.156;2023-09-19T04:24:26;2.20;;;1.20;;
4738;SDS011;2383;48.632;10.156;2023-09-19T04:28:28;2.22;;;1.20;;
4738;SDS011;2383;48.632;10.156;2023-09-19T04:32:30;2.22;;;1.10;;
4738;SDS011;2383;48.632;10.156;2023-09-19T04:36:34;2.95;;;1.50;;
4738;SDS011;2383;48.632;10.156;2023-09-19T04:40:38;1.85;;;0.98;;
4738;SDS011;2383;48.632;10.156;2023-09-19T04:44:41;1.30;;;1.00;;
4738;SDS011;2383;48.632;10.156;2023-09-19T04:48:44;1.30;;;1.00;;
4738;SDS011;2383;48.632;10.156;2023-09-19T04:52:48;2.97;;;1.20;;
4738;SDS011;2383;48.632;10.156;2023-09-19T04:56:52;2.13;;;1.33;;
4738;SDS011;2383;48.632;10.156;2023-09-19T05:00:54;1.85;;;1.23;;
4738;SDS011;2383;48.632;10.156;2023-09-19T05:04:57;1.98;;;1.40;;
4738;SDS011;2383;48.632;10.156;2023-09-19T05:09:01;1.30;;;1.20;;
4738;SDS011;2383;48.632;10.156;2023-09-19T05:13:04;3.83;;;1.35;;
4738;SDS011;2383;48.632;10.156;2023-09-19T05:17:06;1.55;;;1.30;;
4738;SDS011;2383;48.632;10.156;2023-09-19T05:21:09;2.10;;;1.60;;
4738;SDS011;2383;48.632;10.156;2023-09-19T05:25:11;2.78;;;1.50;;
4738;SDS011;2383;48.632;10.156;2023-09-19T05:29:17;4.07;;;1.35;;
4738;SDS011;2383;48.632;10.156;2023-09-19T05:33:19;2.75;;;1.48;;
4738;SDS011;2383;48.632;10.156;2023-09-19T05:37:22;1.58;;;1.40;;
4738;SDS011;2383;48.632;10.156;2023-09-19T05:41:25;3.17;;;1.50;;
4738;SDS011;2383;48.632;10.156;2023-09-19T05:45:27;1.58;;;1.38;;
4738;SDS011;2383;48.632;10.156;2023-09-19T05:49:29;2.38;;;1.70;;
4738;SDS011;2383;48.632;10.156;2023-09-19T05:53:31;2.42;;;1.40;;
4738;SDS011;2383;48.632;10.156;2023-09-19T05:57:34;4.13;;;1.90;;
4738;SDS011;2383;48.632;10.156;2023-09-19T06:01:36;4.18;;;1.65;;
4738;SDS011;2383;48.632;10.156;2023-09-19T06:05:38;5.03;;;1.92;;
4738;SDS011;2383;48.632;10.156;2023-09-19T06:09:42;3.30;;;1.60;;
4738;SDS011;2383;48.632;10.156;2023-09-19T06:13:44;1.60;;;1.50;;
4738;SDS011;2383;48.632;10.156;2023-09-19T06:17:49;2.38;;;1.45;;
4738;SDS011;2383;48.632;10.156;2023-09-19T06:21:53;1.70;;;1.38;;
4738;SDS011;2383;48.632;10.156;2023-09-19T06:25:55;7.82;;;1.85;;
4738;SDS011;2383;48.632;10.156;2023-09-19T06:29:58;2.17;;;1.58;;
4738;SDS011;2383;48.632;10.156;2023-09-19T06:34:00;1.35;;;1.23;;
4738;SDS011;2383;48.632;10.156;2023-09-19T06:38:02;2.67;;;1.40;;
4738;SDS011;2383;48.632;10.156;2023-09-19T06:42:05;1.98;;;1.40;;
4738;SDS011;2383;48.632;10.156;2023-09-19T06:46:09;1.92;;;1.38;;
4738;SDS011;2383;48.632;10.156;2023-09-19T06:50:11;4.72;;;1.55;;
4738;SDS011;2383;48.632;10.156;2023-09-19T06:54:16;4.32;;;1.55;;
4738;SDS011;2383;48.632;10.156;2023-09-19T06:58:19;1.75;;;1.50;;
4738;SDS011;2383;48.632;10.156;2023-09-19T07:02:21;4.93;;;1.73;;
4738;SDS011;2383;48.632;10.156;2023-09-19T07:06:24;2.15;;;1.50;;
4738;SDS011;2383;48.632;10.156;2023-09-19T07:10:26;4.40;;;1.23;;
4738;SDS011;2383;48.632;10.156;2023-09-19T07:14:30;3.67;;;1.50;;
4738;SDS011;2383;48.632;10.156;2023-09-19T07:18:31;3.25;;;1.83;;
4738;SDS011;2383;48.632;10.156;2023-09-19T07:22:34;2.28;;;1.42;;
4738;SDS011;2383;48.632;10.156;2023-09-19T07:26:36;1.70;;;1.27;;
4738;SDS011;2383;48.632;10.156;2023-09-19T07:30:38;1.83;;;1.10;;
4738;SDS011;2383;48.632;10.156;2023-09-19T07:34:40;2.65;;;1.25;;
4738;SDS011;2383;48.632;10.156;2023-09-19T07:38:43;4.00;;;1.13;;
4738;SDS011;2383;48.632;10.156;2023-09-19T07:42:45;1.73;;;1.05;;
4738;SDS011;2383;48.632;10.156;2023-09-19T07:46:48;1.70;;;1.00;;
4738;SDS011;2383;48.632;10.156;2023-09-19T07:50:52;1.63;;;1.08;;
4738;SDS011;2383;48.632;10.156;2023-09-19T07:54:55;2.97;;;0.90;;
4738;SDS011;2383;48.632;10.156;2023-09-19T07:58:59;1.98;;;0.95;;
4738;SDS011;2383;48.632;10.156;2023-09-19T08:03:01;1.63;;;0.80;;
4738;SDS011;2383;48.632;10.156;2023-09-19T08:07:13;2.75;;;0.75;;
4738;SDS011;2383;48.632;10.156;2023-09-19T08:11:16;1.00;;;0.60;;
4738;SDS011;2383;48.632;10.156;2023-09-19T08:15:22;1.17;;;0.77;;
4738;SDS011;2383;48.632;10.156;2023-09-19T08:19:25;0.95;;;0.80;;
4738;SDS011;2383;48.632;10.156;2023-09-19T08:23:29;0.95;;;0.80;;
4738;SDS011;2383;48.632;10.156;2023-09-19T08:27:33;1.67;;;0.80;;
4738;SDS011;2383;48.632;10.156;2023-09-19T08:31:37;4.28;;;1.20;;
4738;SDS011;2383;48.632;10.156;2023-09-19T08:35:40;1.15;;;0.95;;
4738;SDS011;2383;48.632;10.156;2023-09-19T08:39:44;1.20;;;1.00;;
4738;SDS011;2383;48.632;10.156;2023-09-19T08:43:46;2.67;;;1.00;;
4738;SDS011;2383;48.632;10.156;2023-09-19T08:52:28;1.38;;;1.20;;
4738;SDS011;2383;48.632;10.156;2023-09-19T08:56:38;1.90;;;1.40;;
4738;SDS011;2383;48.632;10.156;2023-09-19T09:00:43;1.88;;;1.10;;
4738;SDS011;2383;48.632;10.156;2023-09-19T09:04:48;2.20;;;1.48;;
4738;SDS011;2383;48.632;10.156;2023-09-19T09:08:51;1.23;;;1.13;;
4738;SDS011;2383;48.632;10.156;2023-09-19T09:12:54;1.50;;;1.30;;
4738;SDS011;2383;48.632;10.156;2023-09-19T09:16:56;1.20;;;1.10;;
4738;SDS011;2383;48.632;10.156;2023-09-19T09:21:00;1.48;;;1.30;;
4738;SDS011;2383;48.632;10.156;2023-09-19T09:25:02;2.33;;;1.10;;
4738;SDS011;2383;48.632;10.156;2023-09-19T09:29:06;2.28;;;1.23;;
4738;SDS011;2383;48.632;10.156;2023-09-19T09:33:11;1.80;;;1.15;;
4738;SDS011;2383;48.632;10.156;2023-09-19T09:37:18;1.60;;;1.40;;
4738;SDS011;2383;48.632;10.156;2023-09-19T09:41:21;2.53;;;1.10;;
4738;SDS011;2383;48.632;10.156;2023-09-19T09:45:39;1.58;;;1.20;;
4738;SDS011;2383;48.632;10.156;2023-09-19T09:49:49;2.30;;;1.27;;
4738;SDS011;2383;48.632;10.156;2023-09-19T09:54:09;2.53;;;1.30;;
4738;SDS011;2383;48.632;10.156;2023-09-19T09:58:18;1.52;;;1.10;;
4738;SDS011;2383;48.632;10.156;2023-09-19T10:02:21;1.75;;;1.30;;
4738;SDS011;2383;48.632;10.156;2023-09-19T10:06:39;1.92;;;1.73;;
4738;SDS011;2383;48.632;10.156;2023-09-19T10:10:48;1.23;;;1.13;;
4738;SDS011;2383;48.632;10.156;2023-09-19T10:15:05;3.50;;;1.30;;
4738;SDS011;2383;48.632;10.156;2023-09-19T10:19:08;2.60;;;1.48;;
4738;SDS011;2383;48.632;10.156;2023-09-19T10:23:12;2.75;;;1.30;;
4738;SDS011;2383;48.632;10.156;2023-09-19T10:27:15;3.00;;;1.20;;
4738;SDS011;2383;48.632;10.156;2023-09-19T10:31:20;2.83;;;1.20;;
4738;SDS011;2383;48.632;10.156;2023-09-19T10:35:27;5.05;;;1.52;;
4738;SDS011;2383;48.632;10.156;2023-09-19T10:39:29;1.98;;;1.15;;
4738;SDS011;2383;48.632;10.156;2023-09-19T10:43:33;3.08;;;1.10;;
4738;SDS011;2383;48.632;10.156;2023-09-19T10:47:37;1.95;;;1.00;;
4738;SDS011;2383;48.632;10.156;2023-09-19T10:51:40;2.20;;;1.20;;
4738;SDS011;2383;48.632;10.156;2023-09-19T10:55:57;3.15;;;1.30;;
4738;SDS011;2383;48.632;10.156;2023-09-19T11:04:37;2.30;;;1.20;;
4738;SDS011;2383;48.632;10.156;2023-09-19T11:13:26;3.55;;;1.13;;
4738;SDS011;2383;48.632;10.156;2023-09-19T11:21:38;1.58;;;1.13;;
4738;SDS011;2383;48.632;10.156;2023-09-19T11:25:43;2.35;;;1.17;;
4738;SDS011;2383;48.632;10.156;2023-09-19T11:29:49;3.50;;;1.40;;
4738;SDS011;2383;48.632;10.156;2023-09-19T11:34:47;3.90;;;1.35;;
4738;SDS011;2383;48.632;10.156;2023-09-19T11:42:55;1.92;;;1.20;;
4738;SDS011;2383;48.632;10.156;2023-09-19T11:46:58;2.75;;;1.10;;
4738;SDS011;2383;48.632;10.156;2023-09-19T11:51:01;1.98;;;1.40;;
4738;SDS011;2383;48.632;10.156;2023-09-19T11:55:16;1.83;;;1.40;;
4738;SDS011;2383;48.632;10.156;2023-09-19T12:03:27;1.75;;;1.40;;
4738;SDS011;2383;48.632;10.156;2023-09-19T12:07:32;2.08;;;1.60;;
4738;SDS011;2383;48.632;10.156;2023-09-19T12:11:47;2.60;;;1.23;;
4738;SDS011;2383;48.632;10.156;2023-09-19T12:15:51;2.38;;;1.30;;
4738;SDS011;2383;48.632;10.156;2023-09-19T12:19:53;1.60;;;1.40;;
4738;SDS011;2383;48.632;10.156;2023-09-19T12:24:03;1.35;;;1.25;;
4738;SDS011;2383;48.632;10.156;2023-09-19T12:28:06;2.20;;;1.30;;
4738;SDS011;2383;48.632;10.156;2023-09-19T12:32:11;1.67;;;1.00;;
4738;SDS011;2383;48.632;10.156;2023-09-19T12:36:23;1.58;;;1.05;;
4738;SDS011;2383;48.632;10.156;2023-09-19T12:40:36;2.13;;;1.10;;
4738;SDS011;2383;48.632;10.156;2023-09-19T12:44:40;2.13;;;1.42;;
4738;SDS011;2383;48.632;10.156;2023-09-19T12:48:44;2.10;;;1.13;;
4738;SDS011;2383;48.632;10.156;2023-09-19T12:52:49;1.20;;;1.10;;
4738;SDS011;2383;48.632;10.156;2023-09-19T12:56:51;1.23;;;0.90;;
4738;SDS011;2383;48.632;10.156;2023-09-19T13:00:55;1.70;;;1.30;;
4738;SDS011;2383;48.632;10.156;2023-09-19T13:04:57;2.28;;;1.48;;
4738;SDS011;2383;48.632;10.156;2023-09-19T13:09:10;2.95;;;1.10;;
4738;SDS011;2383;48.632;10.156;2023-09-19T13:13:22;1.30;;;1.00;;
4738;SDS011;2383;48.632;10.156;2023-09-19T13:17:42;1.52;;;0.98;;
4738;SDS011;2383;48.632;10.156;2023-09-19T13:21:45;1.17;;;1.02;;
4738;SDS011;2383;48.632;10.156;2023-09-19T13:25:50;0.80;;;0.80;;
4738;SDS011;2383;48.632;10.156;2023-09-19T13:29:53;1.30;;;1.20;;
4738;SDS011;2383;48.632;10.156;2023-09-19T13:33:54;1.77;;;1.00;;
4738;SDS011;2383;48.632;10.156;2023-09-19T13:37:57;1.23;;;1.13;;
4738;SDS011;2383;48.632;10.156;2023-09-19T13:41:58;1.73;;;0.95;;
4738;SDS011;2383;48.632;10.156;2023-09-19T13:46:01;1.92;;;1.10;;
4738;SDS011;2383;48.632;10.156;2023-09-19T13:50:03;1.20;;;0.98;;
4738;SDS011;2383;48.632;10.156;2023-09-19T13:54:07;1.55;;;0.95;;
4738;SDS011;2383;48.632;10.156;2023-09-19T13:58:09;2.38;;;1.30;;
4738;SDS011;2383;48.632;10.156;2023-09-19T14:02:13;2.13;;;1.23;;
4738;SDS011;2383;48.632;10.156;2023-09-19T14:06:15;1.40;;;0.90;;
4738;SDS011;2383;48.632;10.156;2023-09-19T14:10:18;2.88;;;1.00;;
4738;SDS011;2383;48.632;10.156;2023-09-19T14:14:20;1.35;;;1.00;;
4738;SDS011;2383;48.632;10.156;2023-09-19T14:18:22;2.05;;;1.08;;
4738;SDS011;2383;48.632;10.156;2023-09-19T14:22:24;4.05;;;1.38;;
4738;SDS011;2383;48.632;10.156;2023-09-19T14:26:26;1.55;;;1.10;;
4738;SDS011;2383;48.632;10.156;2023-09-19T14:30:28;2.45;;;1.30;;
4738;SDS011;2383;48.632;10.156;2023-09-19T14:34:31;4.35;;;1.10;;
4738;SDS011;2383;48.632;10.156;2023-09-19T14:38:33;1.30;;;1.20;;
4738;SDS011;2383;48.632;10.156;2023-09-19T14:42:38;4.15;;;1.20;;
4738;SDS011;2383;48.632;10.156;2023-09-19T14:46:41;2.00;;;1.00;;
4738;SDS011;2383;48.632;10.156;2023-09-19T14:50:46;1.38;;;1.02;;
4738;SDS011;2383;48.632;10.156;2023-09-19T14:54:52;1.50;;;1.05;;
4738;SDS011;2383;48.632;10.156;2023-09-19T14:58:54;3.63;;;1.05;;
4738;SDS011;2383;48.632;10.156;2023-09-19T15:02:56;2.25;;;1.17;;
4738;SDS011;2383;48.632;10.156;2023-09-19T15:06:59;1.73;;;1.02;;
4738;SDS011;2383;48.632;10.156;2023-09-19T15:11:01;1.63;;;1.10;;
4738;SDS011;2383;48.632;10.156;2023-09-19T15:15:07;1.35;;;1.10;;
4738;SDS011;2383;48.632;10.156;2023-09-19T15:19:09;2.03;;;1.10;;
4738;SDS011;2383;48.632;10.156;2023-09-19T15:23:11;4.30;;;1.20;;
4738;SDS011;2383;48.632;10.156;2023-09-19T15:27:14;1.75;;;1.10;;
4738;SDS011;2383;48.632;10.156;2023-09-19T15:31:18;2.25;;;1.08;;
4738;SDS011;2383;48.632;10.156;2023-09-19T15:35:20;1.88;;;1.02;;
4738;SDS011;2383;48.632;10.156;2023-09-19T15:39:23;1.83;;;1.25;;
4738;SDS011;2383;48.632;10.156;2023-09-19T15:43:26;1.65;;;1.02;;
4738;SDS011;2383;48.632;10.156;2023-09-19T15:47:28;2.47;;;1.30;;
4738;SDS011;2383;48.632;10.156;2023-09-19T15:51:31;1.70;;;1.30;;
4738;SDS011;2383;48.632;10.156;2023-09-19T15:55:33;1.10;;;1.00;;
4738;SDS011;2383;48.632;10.156;2023-09-19T15:59:41;1.88;;;1.20;;
4738;SDS011;2383;48.632;10.156;2023-09-19T16:03:45;1.45;;;1.23;;
4738;SDS011;2383;48.632;10.156;2023-09-19T16:07:48;1.58;;;1.23;;
4738;SDS011;2383;48.632;10.156;2023-09-19T16:11:50;1.80;;;1.50;;
4738;SDS011;2383;48.632;10.156;2023-09-19T16:15:52;2.65;;;1.45;;
4738;SDS011;2383;48.632;10.156;2023-09-19T16:19:54;1.50;;;1.40;;
4738;SDS011;2383;48.632;10.156;2023-09-19T16:23:57;0.95;;;0.95;;
4738;SDS011;2383;48.632;10.156;2023-09-19T16:27:59;1.83;;;1.02;;
4738;SDS011;2383;48.632;10.156;2023-09-19T16:32:01;2.08;;;1.20;;
4738;SDS011;2383;48.632;10.156;2023-09-19T16:36:14;1.73;;;1.10;;
4738;SDS011;2383;48.632;10.156;2023-09-19T16:40:17;1.58;;;1.33;;
4738;SDS011;2383;48.632;10.156;2023-09-19T16:44:19;3.05;;;1.42;;
4738;SDS011;2383;48.632;10.156;2023-09-19T16:48:26;2.67;;;1.60;;
4738;SDS011;2383;48.632;10.156;2023-09-19T16:52:29;4.68;;;1.65;;
4738;SDS011;2383;48.632;10.156;2023-09-19T16:56:31;1.95;;;1.45;;
4738;SDS011;2383;48.632;10.156;2023-09-19T17:00:35;1.25;;;1.00;;
4738;SDS011;2383;48.632;10.156;2023-09-19T17:04:38;1.80;;;1.17;;
4738;SDS011;2383;48.632;10.156;2023-09-19T17:08:40;3.15;;;1.50;;
4738;SDS011;2383;48.632;10.156;2023-09-19T17:12:44;2.75;;;1.75;;
4738;SDS011;2383;48.632;10.156;2023-09-19T17:16:46;2.53;;;1.48;;
4738;SDS011;2383;48.632;10.156;2023-09-19T17:20:50;2.05;;;1.10;;
4738;SDS011;2383;48.632;10.156;2023-09-19T17:24:52;2.67;;;1.60;;
4738;SDS011;2383;48.632;10.156;2023-09-19T17:28:54;2.85;;;1.40;;
4738;SDS011;2383;48.632;10.156;2023-09-19T17:32:57;3.85;;;1.63;;
4738;SDS011;2383;48.632;10.156;2023-09-19T17:37:01;3.58;;;1.70;;
4738;SDS011;2383;48.632;10.156;2023-09-19T17:41:03;2.25;;;1.33;;
4738;SDS011;2383;48.632;10.156;2023-09-19T17:45:05;4.05;;;1.35;;
4738;SDS011;2383;48.632;10.156;2023-09-19T17:49:08;1.77;;;1.45;;
4738;SDS011;2383;48.632;10.156;2023-09-19T17:53:13;3.75;;;1.67;;
4738;SDS011;2383;48.632;10.156;2023-09-19T17:57:15;1.92;;;1.65;;
4738;SDS011;2383;48.632;10.156;2023-09-19T18:01:18;2.05;;;1.35;;
4738;SDS011;2383;48.632;10.156;2023-09-19T18:05:31;3.13;;;1.35;;
4738;SDS011;2383;48.632;10.156;2023-09-19T18:09:33;4.35;;;1.42;;
4738;SDS011;2383;48.632;10.156;2023-09-19T18:13:35;4.80;;;1.80;;
4738;SDS011;2383;48.632;10.156;2023-09-19T18:17:37;1.60;;;1.50;;
4738;SDS011;2383;48.632;10.156;2023-09-19T18:21:39;3.97;;;1.50;;
4738;SDS011;2383;48.632;10.156;2023-09-19T18:25:45;1.73;;;1.40;;
4738;SDS011;2383;48.632;10.156;2023-09-19T18:29:49;3.75;;;1.65;;
4738;SDS011;2383;48.632;10.156;2023-09-19T18:33:52;5.07;;;2.10;;
4738;SDS011;2383;48.632;10.156;2023-09-19T18:37:55;4.03;;;1.73;;
4738;SDS011;2383;48.632;10.156;2023-09-19T18:41:58;12.82;;;2.45;;
4738;SDS011;2383;48.632;10.156;2023-09-19T18:46:00;4.28;;;2.08;;
4738;SDS011;2383;48.632;10.156;2023-09-19T18:50:02;13.43;;;7.30;;
4738;SDS011;2383;48.632;10.156;2023-09-19T18:54:05;10.70;;;5.30;;
4738;SDS011;2383;48.632;10.156;2023-09-19T18:58:14;6.72;;;3.42;;
4738;SDS011;2383;48.632;10.156;2023-09-19T19:02:16;4.38;;;2.60;;
4738;SDS011;2383;48.632;10.156;2023-09-19T19:06:18;4.18;;;1.80;;
4738;SDS011;2383;48.632;10.156;2023-09-19T19:10:20;3.58;;;1.98;;
4738;SDS011;2383;48.632;10.156;2023-09-19T19:14:22;5.45;;;1.85;;
4738;SDS011;2383;48.632;10.156;2023-09-19T19:18:24;3.97;;;1.88;;
4738;SDS011;2383;48.632;10.156;2023-09-19T19:22:30;6.38;;;1.70;;
4738;SDS011;2383;48.632;10.156;2023-09-19T19:26:33;6.10;;;1.50;;
4738;SDS011;2383;48.632;10.156;2023-09-19T19:30:42;3.10;;;1.73;;
4738;SDS011;2383;48.632;10.156;2023-09-19T19:34:45;3.13;;;1.60;;
4738;SDS011;2383;48.632;10.156;2023-09-19T19:38:47;3.72;;;1.80;;
4738;SDS011;2383;48.632;10.156;2023-09-19T19:42:50;2.05;;;1.60;;
4738;SDS011;2383;48.632;10.156;2023-09-19T19:46:52;3.47;;;1.67;;
4738;SDS011;2383;48.632;10.156;2023-09-19T19:50:54;5.93;;;2.00;;
4738;SDS011;2383;48.632;10.156;2023-09-19T19:54:56;6.20;;;2.38;;
4738;SDS011;2383;48.632;10.156;2023-09-19T19:58:58;2.97;;;1.90;;
4738;SDS011;2383;48.632;10.156;2023-09-19T20:03:01;5.70;;;1.80;;
4738;SDS011;2383;48.632;10.156;2023-09-19T20:07:05;9.52;;;1.60;;
4738;SDS011;2383;48.632;10.156;2023-09-19T20:11:07;3.47;;;1.52;;
4738;SDS011;2383;48.632;10.156;2023-09-19T20:15:10;3.63;;;1.75;;
4738;SDS011;2383;48.632;10.156;2023-09-19T20:19:12;7.55;;;2.17;;
4738;SDS011;2383;48.632;10.156;2023-09-19T20:23:15;3.45;;;2.00;;
4738;SDS011;2383;48.632;10.156;2023-09-19T20:27:20;6.28;;;2.15;;
4738;SDS011;2383;48.632;10.156;2023-09-19T20:31:22;4.05;;;2.15;;
4738;SDS011;2383;48.632;10.156;2023-09-19T20:35:26;3.53;;;1.90;;
4738;SDS011;2383;48.632;10.156;2023-09-19T20:39:28;6.80;;;2.58;;
4738;SDS011;2383;48.632;10.156;2023-09-19T20:43:31;7.13;;;3.17;;
4738;SDS011;2383;48.632;10.156;2023-09-19T20:47:35;9.05;;;2.60;;
4738;SDS011;2383;48.632;10.156;2023-09-19T20:51:38;2.50;;;2.10;;
4738;SDS011;2383;48.632;10.156;2023-09-19T20:55:41;4.53;;;1.98;;
4738;SDS011;2383;48.632;10.156;2023-09-19T20:59:42;4.25;;;2.30;;
4738;SDS011;2383;48.632;10.156;2023-09-19T21:03:45;4.60;;;2.38;;
4738;SDS011;2383;48.632;10.156;2023-09-19T21:07:47;3.28;;;1.85;;
4738;SDS011;2383;48.632;10.156;2023-09-19T21:11:49;2.90;;;1.83;;
4738;SDS011;2383;48.632;10.156;2023-09-19T21:15:51;4.07;;;2.25;;
4738;SDS011;2383;48.632;10.156;2023-09-19T21:19:53;7.55;;;2.78;;
4738;SDS011;2383;48.632;10.156;2023-09-19T21:23:55;5.80;;;2.35;;
4738;SDS011;2383;48.632;10.156;2023-09-19T21:27:57;8.70;;;2.70;;
4738;SDS011;2383;48.632;10.156;2023-09-19T21:31:59;8.25;;;2.20;;
4738;SDS011;2383;48.632;10.156;2023-09-19T21:36:05;6.93;;;2.38;;
4738;SDS011;2383;48.632;10.156;2023-09-19T21:40:11;5.95;;;2.88;;
4738;SDS011;2383;48.632;10.156;2023-09-19T21:44:13;3.10;;;2.70;;
4738;SDS011;2383;48.632;10.156;2023-09-19T21:48:15;6.20;;;3.15;;
4738;SDS011;2383;48.632;10.156;2023-09-19T21:52:17;5.10;;;2.67;;
4738;SDS011;2383;48.632;10.156;2023-09-19T21:56:20;4.43;;;2.22;;
4738;SDS011;2383;48.632;10.156;2023-09-19T22:00:23;4.60;;;2.70;;
4738;SDS011;2383;48.632;10.156;2023-09-19T22:04:35;6.32;;;2.60;;
4738;SDS011;2383;48.632;10.156;2023-09-19T22:08:37;4.43;;;2.30;;
4738;SDS011;2383;48.632;10.156;2023-09-19T22:12:40;5.70;;;2.97;;
4738;SDS011;2383;48.632;10.156;2023-09-19T22:16:42;5.50;;;3.05;;
4738;SDS011;2383;48.632;10.156;2023-09-19T22:20:44;4.30;;;2.33;;
4738;SDS011;2383;48.632;10.156;2023-09-19T22:25:00;5.05;;;2.20;;
4738;SDS011;2383;48.632;10.156;2023-09-19T22:29:03;6.15;;;2.35;;
4738;SDS011;2383;48.632;10.156;2023-09-19T22:33:07;3.28;;;2.10;;
4738;SDS011;2383;48.632;10.156;2023-09-19T22:37:12;9.80;;;3.13;;
4738;SDS011;2383;48.632;10.156;2023-09-19T22:41:14;4.10;;;2.13;;
4738;SDS011;2383;48.632;10.156;2023-09-19T22:45:18;9.38;;;3.05;;
4738;SDS011;2383;48.632;10.156;2023-09-19T22:49:21;3.60;;;1.85;;
4738;SDS011;2383;48.632;10.156;2023-09-19T22:53:25;2.05;;;1.70;;
4738;SDS011;2383;48.632;10.156;2023-09-19T22:57:29;3.30;;;1.80;;
4738;SDS011;2383;48.632;10.156;2023-09-19T23:01:31;2.30;;;2.10;;
4738;SDS011;2383;48.632;10.156;2023-09-19T23:05:43;3.10;;;2.10;;
4738;SDS011;2383;48.632;10.156;2023-09-19T23:09:46;4.40;;;2.10;;
4738;SDS011;2383;48.632;10.156;2023-09-19T23:13:49;2.30;;;2.10;;
4738;SDS011;2383;48.632;10.156;2023-09-19T23:17:53;2.65;;;2.00;;
4738;SDS011;2383;48.632;10.156;2023-09-19T23:21:56;2.40;;;1.88;;
4738;SDS011;2383;48.632;10.156;2023-09-19T23:26:05;3.97;;;1.70;;
4738;SDS011;2383;48.632;10.156;2023-09-19T23:30:07;3.75;;;2.08;;
4738;SDS011;2383;48.632;10.156;2023-09-19T23:34:10;2.15;;;1.75;;
4738;SDS011;2383;48.632;10.156;2023-09-19T23:38:13;2.25;;;1.63;;
4738;SDS011;2383;48.632;10.156;2023-09-19T23:42:16;4.68;;;1.80;;
4738;SDS011;2383;48.632;10.156;2023-09-19T23:46:21;5.35;;;2.03;;
4738;SDS011;2383;48.632;10.156;2023-09-19T23:50:27;2.33;;;1.70;;
4738;SDS011;2383;48.632;10.156;2023-09-19T23:54:30;3.15;;;1.90;;
4738;SDS011;2383;48.632;10.156;2023-09-19T23:58:36;6.75;;;1.90;;
